Time;durP1;ratioP1;P1;durP2;ratioP2;P2;SDS_P1;SDS_P2;PMS_P1;PMS_P2;Temp;Humidity;BMP_temperature;BMP_pressure;BME280_temperature;BME280_humidity;BME280_pressure;Samples;Min_cycle;Max_cycle;Signal;HPM_P1;HPM_P2
2023/03/06 00:01:16;;;;;;;28.90;12.90;;;;;;;-0.13;66.93;98141.11;108625;1255;95602;-72
2023/03/06 00:03:44;;;;;;;32.70;14.70;;;;;;;-0.12;66.99;98139.17;108600;1255;95599;-72
2023/03/06 00:06:12;;;;;;;27.70;12.80;;;;;;;-0.12;67.00;98143.52;108611;1255;111249;-72
2023/03/06 00:08:43;;;;;;;26.70;12.70;;;;;;;-0.13;66.93;98152.27;108648;1255;100929;-73
2023/03/06 00:11:13;;;;;;;26.40;13.40;;;;;;;-0.13;67.04;98151.07;108624;1255;107823;-72
2023/03/06 00:13:41;;;;;;;25.70;12.40;;;;;;;-0.12;67.08;98149.77;108557;1255;95566;-72
2023/03/06 00:16:14;;;;;;;27.70;13.30;;;;;;;-0.11;66.97;98149.39;108526;1255;95639;-72
2023/03/06 00:18:42;;;;;;;21.90;10.40;;;;;;;-0.10;67.01;98142.02;108646;1255;111487;-72
2023/03/06 00:21:10;;;;;;;27.80;12.50;;;;;;;-0.09;67.00;98145.63;108677;1255;100664;-72
2023/03/06 00:23:40;;;;;;;28.20;13.00;;;;;;;-0.08;67.07;98140.39;108493;1255;108340;-72
2023/03/06 00:26:09;;;;;;;28.90;12.70;;;;;;;-0.08;67.04;98144.55;108661;1255;95646;-72
2023/03/06 00:28:37;;;;;;;30.50;13.40;;;;;;;-0.07;67.19;98141.03;108523;1255;95920;-74
2023/03/06 00:31:05;;;;;;;27.50;12.50;;;;;;;-0.07;67.12;98140.86;108463;1256;110995;-72
2023/03/06 00:33:32;;;;;;;37.50;16.60;;;;;;;-0.06;67.10;98138.92;108507;1255;100712;-72
2023/03/06 00:36:03;;;;;;;36.80;14.60;;;;;;;-0.05;67.17;98133.65;108476;1255;107109;-72
2023/03/06 00:38:36;;;;;;;34.80;15.50;;;;;;;-0.04;67.18;98134.12;108387;1255;95663;-72
2023/03/06 00:41:12;;;;;;;37.50;16.70;;;;;;;-0.04;67.08;98135.66;108659;1255;95692;-75
2023/03/06 00:43:43;;;;;;;33.00;14.30;;;;;;;-0.03;67.12;98129.55;108477;1255;111409;-72
2023/03/06 00:46:10;;;;;;;29.50;13.60;;;;;;;-0.02;67.09;98128.64;108541;1255;100904;-72
2023/03/06 00:48:41;;;;;;;30.00;13.30;;;;;;;-0.01;67.03;98129.98;108494;1255;107663;-72
2023/03/06 00:51:08;;;;;;;28.20;13.20;;;;;;;-0.01;67.05;98129.45;108481;1255;95749;-72
2023/03/06 00:53:40;;;;;;;29.60;12.90;;;;;;;-0.01;67.12;98126.67;108630;1255;95555;-77
2023/03/06 00:56:08;;;;;;;28.30;12.40;;;;;;;-0.01;67.14;98125.95;108423;1255;111256;-72
2023/03/06 00:58:36;;;;;;;27.50;11.60;;;;;;;-0.00;67.05;98126.62;108640;1255;100595;-72
2023/03/06 01:01:04;;;;;;;26.00;12.00;;;;;;;0.00;67.06;98128.35;108623;1255;107664;-72
2023/03/06 01:03:32;;;;;;;24.00;10.60;;;;;;;0.01;67.13;98127.59;108414;1255;95663;-72
2023/03/06 01:06:00;;;;;;;28.20;11.90;;;;;;;-0.00;67.12;98127.51;108554;1255;95612;-72
2023/03/06 01:08:28;;;;;;;26.00;11.90;;;;;;;-0.01;66.95;98128.90;108470;1255;111157;-72
2023/03/06 01:10:56;;;;;;;25.00;11.40;;;;;;;-0.01;67.08;98129.42;108655;1255;101029;-72
2023/03/06 01:13:34;;;;;;;25.00;11.20;;;;;;;-0.00;67.07;98126.98;108425;1255;107481;-75
2023/03/06 01:16:09;;;;;;;24.30;10.40;;;;;;;-0.02;67.10;98124.60;108467;1255;95620;-72
2023/03/06 01:18:37;;;;;;;25.00;10.80;;;;;;;-0.03;67.11;98126.92;108359;1260;95752;-73
2023/03/06 01:21:06;;;;;;;24.10;10.90;;;;;;;-0.03;67.18;98128.11;108549;1255;111260;-72
2023/03/06 01:23:34;;;;;;;26.90;11.10;;;;;;;-0.02;67.18;98127.59;108648;1255;101405;-72
2023/03/06 01:26:02;;;;;;;27.30;12.40;;;;;;;-0.02;67.16;98128.29;108615;1255;107642;-72
2023/03/06 01:28:32;;;;;;;25.90;12.10;;;;;;;-0.02;67.18;98122.33;108481;1255;95661;-72
2023/03/06 01:31:00;;;;;;;23.90;9.70;;;;;;;-0.02;67.05;98120.23;108655;1255;95630;-72
2023/03/06 01:33:29;;;;;;;24.80;10.70;;;;;;;-0.03;67.08;98115.08;108644;1255;111265;-77
2023/03/06 01:35:56;;;;;;;22.60;10.00;;;;;;;-0.03;67.21;98115.77;108626;1255;100901;-72
2023/03/06 01:38:27;;;;;;;24.30;10.10;;;;;;;-0.01;67.27;98117.06;108587;1255;107548;-72
2023/03/06 01:41:03;;;;;;;23.10;9.30;;;;;;;-0.01;67.18;98115.48;108439;1256;95708;-72
2023/03/06 01:43:34;;;;;;;24.10;9.40;;;;;;;-0.01;67.23;98115.48;108534;1255;95583;-72
2023/03/06 01:46:25;;;;;;;25.00;9.60;;;;;;;-0.02;67.13;98115.16;108466;1255;111369;-73
2023/03/06 01:49:07;;;;;;;26.60;10.00;;;;;;;0.01;67.29;98119.95;108564;1255;99441;-72
2023/03/06 01:51:47;;;;;;;23.50;8.60;;;;;;;0.02;67.17;98119.04;108637;1253;107094;-72
2023/03/06 01:54:27;;;;;;;25.60;9.90;;;;;;;0.03;67.23;98113.09;108718;1254;95675;-78
2023/03/06 01:57:10;;;;;;;24.70;9.60;;;;;;;0.02;67.26;98111.02;108535;1253;95644;-72
2023/03/06 01:59:40;;;;;;;24.90;9.80;;;;;;;0.02;67.22;98109.98;108488;1253;110764;-72
2023/03/06 02:02:19;;;;;;;21.30;8.90;;;;;;;0.00;67.06;98110.73;108773;1253;100622;-72
2023/03/06 02:04:50;;;;;;;24.30;8.70;;;;;;;-0.01;67.27;98109.40;108657;1255;107528;-76
2023/03/06 02:07:20;;;;;;;24.40;9.10;;;;;;;0.01;67.34;98102.36;108500;1253;95657;-72
2023/03/06 02:09:48;;;;;;;21.20;9.60;;;;;;;-0.00;67.34;98105.20;108683;1253;95616;-72
2023/03/06 02:12:20;;;;;;;23.20;10.10;;;;;;;-0.01;67.32;98104.71;108517;1253;111274;-72
2023/03/06 02:14:48;;;;;;;22.40;8.70;;;;;;;0.00;67.42;98107.60;108801;1253;100557;-72
2023/03/06 02:17:19;;;;;;;22.50;9.50;;;;;;;-0.02;67.31;98106.29;108665;1255;107719;-72
2023/03/06 02:19:59;;;;;;;19.30;7.60;;;;;;;-0.02;67.38;98098.64;108493;1253;95728;-72
2023/03/06 02:22:45;;;;;;;20.60;7.80;;;;;;;-0.02;67.33;98095.15;108733;1253;96018;-72
2023/03/06 02:25:25;;;;;;;18.80;7.50;;;;;;;-0.03;67.39;98103.41;108528;1253;110976;-72
2023/03/06 02:27:53;;;;;;;19.60;8.40;;;;;;;-0.05;67.45;98114.98;108744;1253;100173;-73
2023/03/06 02:30:24;;;;;;;21.00;8.00;;;;;;;-0.05;67.41;98119.34;108750;1253;107737;-72
2023/03/06 02:32:53;;;;;;;19.40;7.30;;;;;;;-0.04;67.50;98121.73;108757;1253;95607;-72
2023/03/06 02:35:25;;;;;;;20.20;7.80;;;;;;;-0.03;67.40;98121.51;108694;1253;95645;-72
2023/03/06 02:37:56;;;;;;;22.80;7.80;;;;;;;-0.03;67.50;98116.31;108677;1253;111267;-72
2023/03/06 02:40:25;;;;;;;19.90;7.30;;;;;;;-0.03;67.59;98117.86;108485;1253;99718;-72
2023/03/06 02:42:56;;;;;;;18.60;7.70;;;;;;;-0.05;67.37;98115.35;108637;1253;107439;-72
2023/03/06 02:45:37;;;;;;;21.40;7.30;;;;;;;-0.07;67.49;98113.13;108641;1253;95700;-72
2023/03/06 02:48:15;;;;;;;22.30;7.40;;;;;;;-0.07;67.61;98110.20;108548;1254;95525;-72
2023/03/06 02:50:44;;;;;;;18.90;7.00;;;;;;;-0.05;67.61;98108.89;108667;1254;111309;-78
2023/03/06 02:53:15;;;;;;;16.70;6.80;;;;;;;-0.05;67.55;98103.98;108500;1254;100420;-72
2023/03/06 02:55:49;;;;;;;19.50;7.10;;;;;;;-0.07;67.50;98106.69;108447;1256;106083;-72
2023/03/06 02:58:21;;;;;;;17.60;6.80;;;;;;;-0.11;67.46;98110.55;108590;1254;95674;-72
2023/03/06 03:00:49;;;;;;;15.90;6.50;;;;;;;-0.12;67.52;98110.92;108722;1254;95563;-72
2023/03/06 03:03:17;;;;;;;16.00;6.10;;;;;;;-0.15;67.53;98115.58;108697;1254;111253;-75
2023/03/06 03:05:45;;;;;;;18.30;5.90;;;;;;;-0.19;67.43;98112.09;108623;1254;100921;-72
2023/03/06 03:08:14;;;;;;;20.50;6.20;;;;;;;-0.19;67.49;98111.21;108508;1254;106710;-72
2023/03/06 03:10:42;;;;;;;17.70;5.50;;;;;;;-0.18;67.45;98104.39;108598;1254;95575;-72
2023/03/06 03:13:13;;;;;;;15.80;5.60;;;;;;;-0.20;67.44;98105.19;108494;1254;95582;-72
2023/03/06 03:15:41;;;;;;;18.90;7.00;;;;;;;-0.20;67.60;98101.16;108584;1254;111264;-72
2023/03/06 03:18:10;;;;;;;17.40;5.70;;;;;;;-0.20;67.69;98089.64;108658;1254;100677;-72
2023/03/06 03:20:41;;;;;;;14.80;5.20;;;;;;;-0.17;67.61;98092.13;108616;1254;107698;-72
2023/03/06 03:23:12;;;;;;;16.80;5.80;;;;;;;-0.16;67.67;98096.28;108624;1254;95612;-72
2023/03/06 03:25:40;;;;;;;15.70;5.80;;;;;;;-0.18;67.71;98096.73;108487;1254;95593;-72
2023/03/06 03:28:08;;;;;;;15.00;5.70;;;;;;;-0.17;67.71;98103.66;108653;1254;111292;-72
2023/03/06 03:30:38;;;;;;;13.60;5.50;;;;;;;-0.17;67.66;98108.16;108667;1254;99906;-73
2023/03/06 03:33:06;;;;;;;17.10;6.40;;;;;;;-0.18;67.77;98108.58;108597;1255;107168;-72
2023/03/06 03:35:34;;;;;;;17.60;5.80;;;;;;;-0.18;67.78;98109.27;108634;1254;95647;-72
2023/03/06 03:38:02;;;;;;;16.70;5.50;;;;;;;-0.17;67.78;98110.63;108733;1254;95792;-72
2023/03/06 03:40:31;;;;;;;15.70;5.60;;;;;;;-0.16;67.85;98112.66;108659;1254;111303;-72
2023/03/06 03:42:59;;;;;;;17.00;6.00;;;;;;;-0.14;67.81;98107.03;108669;1254;100908;-77
2023/03/06 03:45:27;;;;;;;15.90;5.70;;;;;;;-0.11;67.90;98109.34;108443;1254;107406;-72
2023/03/06 03:47:55;;;;;;;16.20;6.10;;;;;;;-0.07;67.99;98110.21;108643;1254;95590;-73
2023/03/06 03:50:26;;;;;;;16.30;6.10;;;;;;;-0.05;68.01;98114.66;108600;1255;95908;-73
2023/03/06 03:53:03;;;;;;;15.30;5.50;;;;;;;-0.05;67.98;98114.81;108736;1253;111297;-72
2023/03/06 03:55:31;;;;;;;16.10;5.80;;;;;;;-0.06;68.12;98112.22;108536;1253;100722;-77
2023/03/06 03:57:59;;;;;;;15.70;5.90;;;;;;;-0.08;67.98;98109.36;108752;1253;107758;-72
2023/03/06 04:00:27;;;;;;;14.70;5.50;;;;;;;-0.08;67.96;98110.39;108774;1253;95546;-73
2023/03/06 04:02:55;;;;;;;14.60;5.90;;;;;;;-0.11;67.94;98108.11;108801;1253;95609;-72
2023/03/06 04:05:32;;;;;;;15.40;5.90;;;;;;;-0.13;67.94;98108.02;108765;1253;111293;-72
2023/03/06 04:08:02;;;;;;;18.70;6.60;;;;;;;-0.14;67.99;98105.24;108683;1253;100949;-73
2023/03/06 04:10:30;;;;;;;17.70;6.70;;;;;;;-0.14;67.97;98106.84;108799;1253;107567;-72
2023/03/06 04:13:00;;;;;;;16.70;6.50;;;;;;;-0.15;68.01;98104.59;108496;1253;95584;-75
2023/03/06 04:15:31;;;;;;;15.60;6.30;;;;;;;-0.16;68.03;98104.45;108692;1253;95626;-73
2023/03/06 04:17:59;;;;;;;17.20;6.30;;;;;;;-0.17;67.90;98103.81;108525;1253;111590;-72
2023/03/06 04:20:27;;;;;;;18.80;6.80;;;;;;;-0.16;68.02;98105.01;108807;1253;100564;-73
2023/03/06 04:22:58;;;;;;;16.90;7.30;;;;;;;-0.18;68.08;98103.84;108790;1253;107842;-72
2023/03/06 04:25:26;;;;;;;16.00;6.80;;;;;;;-0.17;68.11;98104.69;108704;1253;95614;-72
2023/03/06 04:27:54;;;;;;;15.80;6.60;;;;;;;-0.17;68.10;98101.54;108679;1253;95941;-72
2023/03/06 04:30:32;;;;;;;15.50;6.80;;;;;;;-0.18;68.17;98102.11;108739;1253;111329;-72
2023/03/06 04:33:01;;;;;;;19.30;8.00;;;;;;;-0.19;68.14;98101.63;108715;1253;100909;-72
2023/03/06 04:35:29;;;;;;;31.10;14.50;;;;;;;-0.19;67.96;98100.95;108707;1253;107655;-72
2023/03/06 04:37:58;;;;;;;34.60;13.20;;;;;;;-0.19;68.09;98104.61;108654;1253;95625;-72
2023/03/06 04:40:30;;;;;;;23.80;9.40;;;;;;;-0.19;68.16;98105.14;108817;1253;95582;-73
2023/03/06 04:42:59;;;;;;;21.50;8.30;;;;;;;-0.20;68.16;98109.39;108534;1253;110851;-72
2023/03/06 04:45:29;;;;;;;16.00;6.10;;;;;;;-0.23;68.12;98108.11;108487;1253;100581;-72
2023/03/06 04:48:09;;;;;;;19.70;6.80;;;;;;;-0.28;68.11;98110.41;108657;1253;107653;-72
2023/03/06 04:50:37;;;;;;;20.00;6.70;;;;;;;-0.32;68.15;98107.26;108492;1253;95594;-73
2023/03/06 04:53:18;;;;;;;14.60;6.00;;;;;;;-0.37;67.92;98104.17;108779;1253;95576;-73
2023/03/06 04:55:46;;;;;;;18.30;6.40;;;;;;;-0.43;67.87;98104.27;108792;1253;111129;-72
2023/03/06 04:58:15;;;;;;;18.20;7.50;;;;;;;-0.48;68.12;98106.38;108819;1253;100594;-78
2023/03/06 05:00:43;;;;;;;21.40;7.30;;;;;;;-0.51;67.92;98109.15;108760;1253;107636;-73
2023/03/06 05:03:14;;;;;;;18.40;6.50;;;;;;;-0.57;67.91;98110.42;108495;1253;95654;-73
2023/03/06 05:05:41;;;;;;;18.00;6.80;;;;;;;-0.61;68.15;98109.56;108545;1253;95648;-72
2023/03/06 05:08:14;;;;;;;17.30;6.40;;;;;;;-0.64;68.02;98108.99;108722;1253;111294;-73
2023/03/06 05:10:43;;;;;;;23.80;9.60;;;;;;;-0.66;68.02;98108.04;108661;1253;101275;-73
2023/03/06 05:13:43;;;;;;;27.00;12.30;;;;;;;-0.68;67.89;98102.54;108714;1253;107642;-74
2023/03/06 05:16:14;;;;;;;16.60;6.90;;;;;;;-0.76;67.95;98094.66;108517;1253;95700;-73
2023/03/06 05:18:42;;;;;;;18.70;7.30;;;;;;;-0.85;67.73;98092.64;108783;1253;95647;-71
2023/03/06 05:21:10;;;;;;;19.50;7.40;;;;;;;-0.93;67.70;98103.41;108672;1253;110230;-72
2023/03/06 05:23:37;;;;;;;26.80;11.40;;;;;;;-0.95;67.95;98106.27;108701;1253;101862;-73
2023/03/06 05:26:14;;;;;;;29.00;13.20;;;;;;;-0.95;68.07;98114.42;108769;1253;107078;-72
2023/03/06 05:28:42;;;;;;;35.30;15.60;;;;;;;-0.95;67.97;98112.72;108485;1253;95621;-73
2023/03/06 05:31:11;;;;;;;30.50;13.80;;;;;;;-0.96;68.10;98112.39;108439;1253;96185;-72
2023/03/06 05:33:39;;;;;;;21.10;8.80;;;;;;;-0.96;68.00;98109.61;108630;1256;110799;-73
2023/03/06 05:36:08;;;;;;;18.30;6.80;;;;;;;-0.96;68.04;98103.52;108270;1253;101066;-76
2023/03/06 05:38:36;;;;;;;18.20;7.70;;;;;;;-0.96;68.04;98105.92;108485;1253;106693;-72
2023/03/06 05:41:04;;;;;;;22.80;9.10;;;;;;;-0.97;67.86;98103.02;108595;1256;95955;-72
2023/03/06 05:43:35;;;;;;;22.70;9.10;;;;;;;-0.98;67.95;98099.58;108442;1255;96019;-72
2023/03/06 05:46:04;;;;;;;21.80;9.70;;;;;;;-0.98;67.92;98104.98;108469;1253;111237;-72
2023/03/06 05:48:34;;;;;;;24.10;9.80;;;;;;;-0.94;68.16;98107.62;108572;1253;102452;-72
2023/03/06 05:51:03;;;;;;;25.50;11.50;;;;;;;-0.87;68.17;98109.61;108511;1253;107678;-72
2023/03/06 05:53:31;;;;;;;29.70;13.20;;;;;;;-0.77;68.36;98111.95;108423;1254;95897;-72
2023/03/06 05:56:05;;;;;;;29.50;13.20;;;;;;;-0.63;68.37;98114.17;108429;1254;96865;-72
2023/03/06 05:58:33;;;;;;;26.80;12.30;;;;;;;-0.49;68.36;98113.05;108578;1254;110935;-72
2023/03/06 06:01:13;;;;;;;27.00;11.60;;;;;;;-0.34;68.60;98111.86;108615;1256;100913;-74
2023/03/06 06:03:41;;;;;;;33.50;15.40;;;;;;;-0.21;68.53;98113.56;108506;1255;107100;-72
2023/03/06 06:06:11;;;;;;;34.70;15.20;;;;;;;-0.08;68.57;98119.83;108421;1255;202004;-73
2023/03/06 06:08:43;;;;;;;29.90;12.70;;;;;;;0.02;68.55;98121.66;108652;1254;96132;-73
2023/03/06 06:11:12;;;;;;;24.10;9.90;;;;;;;0.09;68.60;98118.19;108606;1255;111294;-72
2023/03/06 06:13:40;;;;;;;21.40;9.10;;;;;;;0.14;68.56;98119.01;108606;1254;101149;-72
2023/03/06 06:16:15;;;;;;;27.20;11.00;;;;;;;0.17;68.40;98115.58;108477;1254;107633;-71
2023/03/06 06:18:44;;;;;;;18.90;7.50;;;;;;;0.20;68.46;98113.49;108629;1254;95864;-71
2023/03/06 06:21:16;;;;;;;21.30;8.40;;;;;;;0.25;68.55;98119.91;108563;1255;95672;-73
2023/03/06 06:23:45;;;;;;;23.90;9.30;;;;;;;0.29;68.50;98121.11;108543;1255;111135;-73
2023/03/06 06:26:12;;;;;;;22.80;8.30;;;;;;;0.31;68.48;98121.73;108420;1256;100073;-71
2023/03/06 06:28:40;;;;;;;20.60;7.50;;;;;;;0.31;68.54;98119.99;108600;1254;108968;-72
2023/03/06 06:31:11;;;;;;;19.90;9.00;;;;;;;0.35;68.55;98120.88;108560;1254;95783;-73
2023/03/06 06:33:40;;;;;;;35.10;14.40;;;;;;;0.38;68.53;98123.31;108587;1255;95989;-73
2023/03/06 06:36:19;;;;;;;29.80;11.50;;;;;;;0.48;68.76;98122.52;108537;1255;111369;-72
2023/03/06 06:38:48;;;;;;;29.50;11.40;;;;;;;0.54;68.72;98118.73;108438;1257;100883;-74
2023/03/06 06:41:16;;;;;;;23.80;9.20;;;;;;;0.63;68.76;98117.12;108536;1254;107139;-73
2023/03/06 06:44:11;;;;;;;39.10;18.90;;;;;;;0.70;68.68;98122.73;108563;1253;95659;-75
2023/03/06 06:46:40;;;;;;;35.30;16.30;;;;;;;0.75;68.63;98123.52;108591;1254;95626;-71
2023/03/06 06:49:28;;;;;;;31.10;13.40;;;;;;;0.78;68.65;98125.49;108621;1254;111300;-71
2023/03/06 06:51:56;;;;;;;29.60;12.90;;;;;;;0.80;68.73;98125.05;108608;1253;99705;-72
2023/03/06 06:54:26;;;;;;;30.70;13.50;;;;;;;0.81;68.65;98123.59;108664;1253;106342;-72
2023/03/06 06:56:54;;;;;;;29.70;14.60;;;;;;;0.87;68.87;98131.50;108495;1253;95674;-72
2023/03/06 06:59:30;;;;;;;32.50;14.50;;;;;;;0.96;69.00;98132.64;108709;1253;95622;-72
2023/03/06 07:01:58;;;;;;;36.00;18.10;;;;;;;1.03;68.75;98135.27;108738;1253;111972;-73
2023/03/06 07:04:26;;;;;;;45.70;24.90;;;;;;;1.07;68.89;98137.22;108714;1255;100875;-78
2023/03/06 07:06:55;;;;;;;48.00;26.70;;;;;;;1.08;68.87;98141.84;108541;1253;107649;-75
2023/03/06 07:09:23;;;;;;;37.90;18.80;;;;;;;1.10;68.89;98142.12;108692;1255;95654;-73
2023/03/06 07:11:52;;;;;;;37.20;19.40;;;;;;;1.11;68.77;98146.58;108594;1253;95629;-72
2023/03/06 07:14:24;;;;;;;31.80;14.90;;;;;;;1.16;69.11;98141.83;108610;1257;111337;-72
2023/03/06 07:16:52;;;;;;;27.60;13.20;;;;;;;1.16;68.61;98148.62;108556;1253;100536;-72
2023/03/06 07:19:20;;;;;;;31.70;16.40;;;;;;;1.15;68.80;98152.70;108594;1254;106484;-72
2023/03/06 07:21:48;;;;;;;26.40;14.30;;;;;;;1.20;68.78;98150.38;108748;1253;96644;-73
2023/03/06 07:24:19;;;;;;;29.30;14.40;;;;;;;1.22;68.81;98150.41;108619;1253;95870;-73
2023/03/06 07:26:57;;;;;;;29.60;12.50;;;;;;;1.26;68.59;98151.98;108328;1253;111304;-76
2023/03/06 07:29:25;;;;;;;31.20;14.60;;;;;;;1.33;68.65;98150.08;108554;1253;100661;-75
2023/03/06 07:32:00;;;;;;;33.70;17.40;;;;;;;1.39;68.87;98148.71;108643;1253;107820;-75
2023/03/06 07:34:39;;;;;;;27.20;12.80;;;;;;;1.51;68.79;98146.23;108477;1253;95721;-73
2023/03/06 07:37:11;;;;;;;29.70;14.00;;;;;;;1.62;68.74;98148.42;108692;1253;95630;-76
2023/03/06 07:39:41;;;;;;;28.40;14.90;;;;;;;1.74;68.73;98148.70;108543;1254;111173;-73
2023/03/06 07:42:13;;;;;;;28.10;13.90;;;;;;;1.82;69.09;98150.23;108458;1254;98797;-72
2023/03/06 07:44:41;;;;;;;25.40;12.00;;;;;;;1.86;68.86;98148.64;108673;1253;107909;-74
2023/03/06 07:47:12;;;;;;;24.10;11.60;;;;;;;1.87;68.99;98149.30;108585;1257;95675;-72
2023/03/06 07:49:41;;;;;;;35.00;17.30;;;;;;;1.90;68.75;98152.95;108737;1254;95774;-74
2023/03/06 07:52:09;;;;;;;26.80;14.60;;;;;;;1.96;68.90;98152.11;108430;1254;111249;-72
2023/03/06 07:54:37;;;;;;;25.30;10.20;;;;;;;1.99;68.75;98153.02;108579;1254;99582;-74
2023/03/06 07:57:05;;;;;;;19.40;8.00;;;;;;;2.01;68.79;98156.25;108560;1254;107711;-74
2023/03/06 07:59:33;;;;;;;20.70;7.90;;;;;;;1.96;68.18;98152.48;108595;1256;95665;-75
2023/03/06 08:02:02;;;;;;;20.40;8.90;;;;;;;1.96;68.20;98151.64;108592;1256;95757;-73
2023/03/06 08:04:31;;;;;;;22.70;10.80;;;;;;;2.04;68.65;98149.46;108508;1254;110846;-72
2023/03/06 08:06:59;;;;;;;24.10;10.40;;;;;;;2.15;68.53;98152.91;108468;1254;100890;-73
2023/03/06 08:09:35;;;;;;;26.70;12.90;;;;;;;2.32;69.04;98145.35;108556;1256;107412;-77
2023/03/06 08:12:22;;;;;;;23.40;11.30;;;;;;;2.46;68.61;98143.02;108522;1254;95725;-75
2023/03/06 08:14:54;;;;;;;26.40;11.70;;;;;;;2.50;68.56;98141.06;108549;1253;96296;-74
2023/03/06 08:17:22;;;;;;;24.30;11.30;;;;;;;2.41;68.13;98139.96;108558;1254;110921;-73
2023/03/06 08:19:50;;;;;;;26.30;12.70;;;;;;;2.30;68.48;98136.89;108523;1254;101022;-74
2023/03/06 08:22:18;;;;;;;25.20;10.40;;;;;;;2.29;68.63;98139.34;108604;1254;108225;-70
2023/03/06 08:24:46;;;;;;;24.40;10.90;;;;;;;2.35;68.53;98139.58;108494;1258;95985;-70
2023/03/06 08:27:15;;;;;;;29.20;13.00;;;;;;;2.45;68.89;98141.69;108630;1256;95700;-71
2023/03/06 08:29:42;;;;;;;27.10;13.20;;;;;;;2.64;68.92;98141.52;108643;1254;111736;-75
2023/03/06 08:32:11;;;;;;;24.00;10.40;;;;;;;2.81;68.95;98137.08;108629;1254;101037;-74
2023/03/06 08:34:39;;;;;;;25.20;11.60;;;;;;;2.95;68.74;98138.73;108422;1254;107368;-74
2023/03/06 08:37:08;;;;;;;23.30;11.00;;;;;;;3.16;68.87;98135.64;108510;1258;95568;-72
2023/03/06 08:39:36;;;;;;;24.00;11.20;;;;;;;3.27;68.55;98137.65;108462;1255;95764;-72
2023/03/06 08:42:04;;;;;;;23.10;10.40;;;;;;;3.37;68.55;98138.46;108598;1255;109836;-74
2023/03/06 08:44:52;;;;;;;20.60;9.60;;;;;;;3.50;68.98;98136.65;108573;1255;100948;-74
2023/03/06 08:47:23;;;;;;;24.00;10.70;;;;;;;3.57;68.51;98140.61;108510;1255;107525;-73
2023/03/06 08:49:51;;;;;;;23.70;10.90;;;;;;;3.60;68.48;98139.08;108581;1254;95699;-74
2023/03/06 08:52:19;;;;;;;25.90;12.20;;;;;;;3.63;68.48;98133.84;108652;1254;95659;-73
2023/03/06 08:54:47;;;;;;;23.80;11.30;;;;;;;3.64;68.53;98133.09;108725;1253;112237;-73
2023/03/06 08:57:15;;;;;;;25.60;12.30;;;;;;;3.75;68.55;98128.75;108745;1253;100894;-75
2023/03/06 08:59:43;;;;;;;25.10;12.60;;;;;;;3.76;68.32;98130.41;108620;1253;105480;-73
2023/03/06 09:02:14;;;;;;;27.20;13.30;;;;;;;3.73;68.14;98130.98;108751;1253;95733;-73
2023/03/06 09:04:42;;;;;;;25.60;12.80;;;;;;;3.74;68.34;98127.36;108525;1253;95690;-72
2023/03/06 09:07:11;;;;;;;27.90;13.70;;;;;;;3.78;68.43;98125.92;108559;1253;109587;-73
2023/03/06 09:09:39;;;;;;;27.50;13.80;;;;;;;3.89;68.53;98123.88;108678;1254;101206;-73
2023/03/06 09:12:07;;;;;;;27.10;13.70;;;;;;;3.95;68.28;98123.13;108484;1257;107669;-73
2023/03/06 09:14:37;;;;;;;27.80;13.90;;;;;;;3.99;68.48;98118.50;108727;1253;96123;-73
2023/03/06 09:17:06;;;;;;;27.90;13.70;;;;;;;4.07;68.25;98120.20;108766;1253;95633;-72
2023/03/06 09:19:34;;;;;;;27.10;13.80;;;;;;;4.09;68.20;98120.54;108583;1253;110872;-77
2023/03/06 09:22:02;;;;;;;28.80;15.00;;;;;;;4.11;68.28;98115.38;108736;1254;100862;-73
2023/03/06 09:24:30;;;;;;;26.40;13.40;;;;;;;4.16;68.25;98117.88;108736;1253;107857;-74
2023/03/06 09:26:58;;;;;;;24.80;12.40;;;;;;;4.13;68.02;98111.85;108682;1253;95810;-73
2023/03/06 09:29:26;;;;;;;28.10;13.40;;;;;;;4.10;67.73;98111.02;108752;1253;95635;-73
2023/03/06 09:31:55;;;;;;;26.70;13.40;;;;;;;4.02;67.83;98116.77;108763;1253;110989;-72
2023/03/06 09:34:23;;;;;;;29.70;14.40;;;;;;;3.95;67.95;98111.73;108437;1253;100610;-73
2023/03/06 09:36:51;;;;;;;28.70;13.70;;;;;;;3.96;68.19;98112.89;108702;1253;107642;-72
2023/03/06 09:39:24;;;;;;;26.70;14.00;;;;;;;4.02;68.26;98109.94;108673;1254;95959;-73
2023/03/06 09:41:54;;;;;;;26.10;13.20;;;;;;;4.11;68.33;98105.89;108751;1253;95625;-72
2023/03/06 09:44:26;;;;;;;25.10;13.30;;;;;;;4.22;68.28;98107.15;108461;1253;111053;-71
2023/03/06 09:47:16;;;;;;;26.40;12.60;;;;;;;4.38;68.26;98107.86;108626;1253;100880;-73
2023/03/06 09:50:03;;;;;;;29.10;13.80;;;;;;;4.55;68.24;98109.48;108680;1253;107550;-79
2023/03/06 09:52:44;;;;;;;21.90;10.20;;;;;;;4.79;68.20;98109.35;108541;1256;96093;-72
2023/03/06 09:55:17;;;;;;;22.40;10.70;;;;;;;4.96;68.07;98106.70;108588;1255;95887;-71
2023/03/06 09:58:07;;;;;;;20.90;10.30;;;;;;;5.09;67.90;98102.34;108601;1254;111093;-71
2023/03/06 10:00:58;;;;;;;22.20;10.40;;;;;;;5.18;67.63;98102.45;108586;1254;101027;-71
2023/03/06 10:03:37;;;;;;;22.90;11.60;;;;;;;5.25;67.92;98098.31;108529;1254;107808;-74
2023/03/06 10:06:15;;;;;;;22.30;10.90;;;;;;;5.37;67.85;98097.70;108563;1254;95982;-72
2023/03/06 10:08:54;;;;;;;23.70;10.80;;;;;;;5.42;67.70;98096.11;108551;1255;95630;-75
2023/03/06 10:11:43;;;;;;;25.30;12.60;;;;;;;5.38;67.57;98094.67;108603;1254;111259;-74
2023/03/06 10:14:34;;;;;;;20.50;10.10;;;;;;;5.29;67.61;98091.16;108606;1256;100622;-72
2023/03/06 10:17:03;;;;;;;26.90;12.60;;;;;;;5.30;67.18;98089.52;108514;1254;107767;-72
2023/03/06 10:19:35;;;;;;;28.90;13.60;;;;;;;5.26;67.47;98088.91;108591;1254;95771;-71
2023/03/06 10:22:23;;;;;;;25.00;10.60;;;;;;;5.27;67.49;98086.59;108550;1259;95617;-69
2023/03/06 10:25:18;;;;;;;21.50;9.20;;;;;;;5.35;66.86;98085.52;108673;1254;110907;-71
2023/03/06 10:27:47;;;;;;;22.60;9.50;;;;;;;5.37;66.83;98077.83;108519;1256;100928;-72
2023/03/06 10:30:57;;;;;;;18.80;8.90;;;;;;;5.35;67.12;98076.91;108583;1254;107109;-76
2023/03/06 10:33:37;;;;;;;19.50;9.10;;;;;;;5.23;67.05;98073.82;108388;1255;96010;-75
2023/03/06 10:36:05;;;;;;;17.50;7.80;;;;;;;5.21;67.02;98075.21;108606;1254;96133;-72
2023/03/06 10:38:36;;;;;;;19.70;9.20;;;;;;;5.16;66.98;98079.22;108635;1254;111566;-71
2023/03/06 10:41:11;;;;;;;20.40;9.20;;;;;;;5.09;67.03;98070.73;108625;1254;100707;-71
2023/03/06 10:43:44;;;;;;;21.50;9.40;;;;;;;5.04;66.93;98062.27;108576;1254;108062;-71
2023/03/06 10:46:28;;;;;;;15.20;7.30;;;;;;;5.12;67.04;98062.93;108471;1254;95643;-71
2023/03/06 10:48:59;;;;;;;16.90;8.10;;;;;;;5.16;66.43;98053.91;108621;1256;95710;-74
2023/03/06 10:51:29;;;;;;;17.60;7.20;;;;;;;5.28;66.83;98049.22;108652;1254;111947;-71
2023/03/06 10:54:22;;;;;;;17.80;7.20;;;;;;;5.41;66.55;98045.92;108597;1257;100781;-71
2023/03/06 10:56:50;;;;;;;13.80;6.40;;;;;;;5.47;66.47;98042.14;108574;1259;107723;-73
2023/03/06 10:59:24;;;;;;;18.50;8.10;;;;;;;5.51;66.45;98041.38;108506;1255;95692;-71
2023/03/06 11:02:32;;;;;;;18.20;7.20;;;;;;;5.49;65.97;98040.41;108700;1254;95784;-72
2023/03/06 11:05:00;;;;;;;17.40;7.80;;;;;;;5.56;66.28;98034.90;108591;1256;109613;-71
2023/03/06 11:07:35;;;;;;;18.10;7.90;;;;;;;5.65;66.42;98032.52;108559;1258;99726;-72
2023/03/06 11:10:20;;;;;;;23.60;9.00;;;;;;;5.73;66.12;98030.54;108607;1259;107637;-74
2023/03/06 11:13:06;;;;;;;21.30;8.10;;;;;;;5.78;66.15;98023.64;108500;1260;95661;-71
2023/03/06 11:15:34;;;;;;;18.70;7.60;;;;;;;5.85;65.94;98022.34;108581;1254;96524;-70
2023/03/06 11:18:23;;;;;;;19.80;7.80;;;;;;;5.90;65.81;98014.09;108647;1254;110695;-70
2023/03/06 11:20:54;;;;;;;17.30;7.60;;;;;;;5.95;65.97;98013.70;108622;1254;100903;-74
2023/03/06 11:23:34;;;;;;;19.10;8.00;;;;;;;6.00;65.35;98009.71;108577;1254;106200;-71
2023/03/06 11:26:15;;;;;;;17.80;7.60;;;;;;;6.05;64.71;98004.94;108692;1255;95651;-72
2023/03/06 11:28:56;;;;;;;17.80;7.30;;;;;;;6.11;65.18;98001.20;108709;1254;95743;-74
2023/03/06 12:15:33;;;;;;;16.30;6.60;;;;;;;6.25;62.01;97958.08;102969;1296;94321;-72
2023/03/06 12:18:12;;;;;;;17.60;7.30;;;;;;;6.26;62.29;97956.14;108271;1257;92389;-71